Time;durP1;ratioP1;P1;durP2;ratioP2;P2;SDS_P1;SDS_P2;PMS_P1;PMS_P2;Temp;Humidity;BMP_temperature;BMP_pressure;BME280_temperature;BME280_humidity;BME280_pressure;Samples;Min_cycle;Max_cycle;Signal;HPM_P1;HPM_P2
2023/01/03 00:01:32;;;;;;;477.87;189.37;;;;;;;;;;4994794;28;20746;-54
2023/01/03 00:03:59;;;;;;;563.57;228.03;;;10.60;93.40;;;;;;4995551;28;20226;-54
2023/01/03 00:06:31;;;;;;;665.83;270.10;;;10.00;75.40;;;;;;4990462;28;20238;-53
2023/01/03 00:08:58;;;;;;;611.70;243.07;;;9.90;99.20;;;;;;4981253;28;20228;-53
2023/01/03 00:14:17;;;;;;;635.40;247.47;;;10.30;99.90;;;;;;4987100;28;20282;-54
2023/01/03 00:16:43;;;;;;;533.60;213.90;;;;;;;;;;4978842;28;20271;-53
2023/01/03 00:19:12;;;;;;;581.70;234.10;;;9.70;99.90;;;;;;5002363;28;20561;-54
2023/01/03 00:21:38;;;;;;;511.70;208.87;;;9.70;99.90;;;;;;4994775;28;20303;-54
2023/01/03 00:24:05;;;;;;;501.33;193.27;;;;;;;;;;4995785;28;20219;-53
2023/01/03 00:26:32;;;;;;;510.37;194.53;;;9.60;99.90;;;;;;4993940;28;20562;-54
2023/01/03 00:28:58;;;;;;;488.63;183.47;;;;;;;;;;4995927;28;20572;-55
2023/01/03 00:31:25;;;;;;;561.80;225.83;;;;;;;;;;5000057;28;20615;-53
2023/01/03 00:33:51;;;;;;;462.03;181.53;;;;;;;;;;5003977;28;20574;-53
2023/01/03 00:36:17;;;;;;;589.10;226.67;;;;;;;;;;4985569;28;20236;-54
2023/01/03 00:38:44;;;;;;;549.47;222.53;;;;;;;;;;4978089;28;20295;-54
2023/01/03 00:41:11;;;;;;;571.80;216.50;;;;;;;;;;4987411;28;20220;-54
2023/01/03 00:43:38;;;;;;;594.80;216.70;;;;;;;;;;5000473;28;20429;-54
2023/01/03 00:46:05;;;;;;;579.97;210.70;;;;;;;;;;4999285;28;20281;-54
2023/01/03 00:48:31;;;;;;;485.97;187.53;;;;;;;;;;4999650;28;20555;-54
2023/01/03 00:51:03;;;;;;;446.50;168.93;;;;;;;;;;4996817;28;20562;-53
2023/01/03 00:53:29;;;;;;;572.27;217.87;;;;;;;;;;5013340;28;20255;-54
2023/01/03 00:56:01;;;;;;;570.60;221.77;;;;;;;;;;4973960;28;20680;-54
2023/01/03 00:58:29;;;;;;;590.20;228.93;;;;;;;;;;4994723;28;20234;-54
2023/01/03 01:00:56;;;;;;;522.27;216.37;;;;;;;;;;4993237;28;20251;-54
2023/01/03 01:03:22;;;;;;;594.73;256.73;;;;;;;;;;4994846;28;20225;-54
2023/01/03 01:05:48;;;;;;;563.13;239.07;;;;;;;;;;4980697;28;20231;-54
2023/01/03 01:08:14;;;;;;;741.23;316.63;;;;;;;;;;4990049;28;20228;-54
2023/01/03 01:11:00;;;;;;;716.77;311.53;;;;;;;;;;4984599;28;20231;-54
2023/01/03 01:13:28;;;;;;;728.47;311.17;;;;;;;;;;4990759;28;20576;-54
2023/01/03 01:15:54;;;;;;;544.53;221.43;;;;;;;;;;4997662;28;20216;-54
2023/01/03 01:18:21;;;;;;;706.60;298.47;;;;;;;;;;4991126;28;20596;-54
2023/01/03 01:20:47;;;;;;;712.47;306.70;;;;;;;;;;4988398;28;20434;-54
2023/01/03 01:23:13;;;;;;;682.93;291.23;;;;;;;;;;4988728;28;20249;-54
2023/01/03 01:25:39;;;;;;;523.80;220.10;;;;;;;;;;4994143;28;20282;-54
2023/01/03 01:28:05;;;;;;;505.37;212.43;;;;;;;;;;4996168;28;20520;-54
2023/01/03 01:30:32;;;;;;;696.23;291.37;;;;;;;;;;4991906;28;20295;-54
2023/01/03 01:32:59;;;;;;;559.30;236.07;;;;;;;;;;4994559;28;20350;-54
2023/01/03 01:35:27;;;;;;;709.63;314.00;;;;;;;;;;4990113;28;20235;-53
2023/01/03 01:37:54;;;;;;;571.53;240.77;;;;;;;;;;4990810;28;20220;-53
2023/01/03 01:40:20;;;;;;;635.10;272.67;;;;;;;;;;4984742;28;20204;-53
2023/01/03 01:45:31;;;;;;;676.50;295.60;;;;;;;;;;4989872;28;20298;-55
2023/01/03 01:47:59;;;;;;;650.23;280.40;;;;;;;;;;4985646;28;20306;-55
2023/01/03 01:50:39;;;;;;;712.47;314.73;;;;;;;;;;4993600;28;20208;-55
2023/01/03 01:53:20;;;;;;;582.77;250.23;;;;;;;;;;4984995;28;20264;-54
2023/01/03 01:56:00;;;;;;;683.77;286.27;;;;;;;;;;4991805;28;20787;-53
2023/01/03 01:58:28;;;;;;;542.13;229.07;;;;;;;;;;4997893;28;20721;-53
2023/01/03 02:00:55;;;;;;;690.30;299.80;;;;;;;;;;4982709;28;20818;-54
2023/01/03 02:03:21;;;;;;;636.53;269.87;;;;;;;;;;4986055;28;20433;-54
2023/01/03 02:05:51;;;;;;;631.33;262.60;;;;;;;;;;4993611;28;20221;-54
2023/01/03 02:08:17;;;;;;;529.43;218.90;;;;;;;;;;4971401;28;20578;-54
2023/01/03 02:10:53;;;;;;;668.33;289.57;;;;;;;;;;4987574;28;20209;-54
2023/01/03 02:13:22;;;;;;;607.37;260.77;;;;;;;;;;4994853;28;20735;-53
2023/01/03 02:16:07;;;;;;;536.33;228.90;;;;;;;;;;4993227;28;20262;-54
2023/01/03 02:18:40;;;;;;;613.17;256.47;;;;;;;;;;4982048;28;20223;-54
2023/01/03 02:21:22;;;;;;;538.67;240.50;;;;;;;;;;4979306;28;20230;-54
2023/01/03 02:24:17;;;;;;;557.97;241.70;;;;;;;;;;4979654;28;20732;-54
2023/01/03 02:27:02;;;;;;;679.23;284.73;;;;;;;;;;4983418;28;20228;-55
2023/01/03 02:29:41;;;;;;;635.10;262.03;;;;;;;;;;4992393;28;20240;-55
2023/01/03 02:32:20;;;;;;;574.97;244.67;;;;;;;;;;4982162;28;20289;-55
2023/01/03 02:34:50;;;;;;;514.17;227.00;;;;;;;;;;4987714;28;20196;-54
2023/01/03 02:37:16;;;;;;;579.00;241.70;;;;;;;;;;4991820;28;20188;-55
2023/01/03 02:39:42;;;;;;;583.53;241.10;;;;;;;;;;4980191;28;20225;-55
2023/01/03 02:45:09;;;;;;;577.07;237.77;;;;;;;;;;4992749;28;20429;-55
2023/01/03 02:47:41;;;;;;;569.53;236.27;;;;;;;;;;4993911;28;20238;-54
2023/01/03 02:50:09;;;;;;;649.50;276.93;;;;;;;;;;4993364;28;20751;-54
2023/01/03 02:52:36;;;;;;;556.43;241.70;;;;;;;;;;4984336;28;20299;-54
2023/01/03 02:55:08;;;;;;;600.80;249.63;;;;;;;;;;4986169;28;20212;-54
2023/01/03 02:57:37;;;;;;;554.20;236.40;;;;;;;;;;4988002;28;20227;-54
2023/01/03 03:00:13;;;;;;;648.87;271.27;;;;;;;;;;4989015;28;20212;-54
2023/01/03 03:02:43;;;;;;;659.30;280.80;;;;;;;;;;4975590;28;20212;-54
2023/01/03 03:05:12;;;;;;;641.90;273.27;;;;;;;;;;4993071;28;20235;-54
2023/01/03 03:07:39;;;;;;;574.60;236.57;;;;;;;;;;4971162;28;20189;-53
2023/01/03 03:13:12;;;;;;;549.67;230.20;;;;;;;;;;4991787;28;20638;-53
2023/01/03 03:15:42;;;;;;;573.57;234.90;;;;;;;;;;4982461;28;20302;-53
2023/01/03 03:18:11;;;;;;;575.27;246.73;;;;;;;;;;4997271;28;20302;-53
2023/01/03 03:26:20;;;;;;;663.50;273.90;;;;;;;;;;4991180;28;20239;-55
2023/01/03 03:28:49;;;;;;;644.23;260.10;;;;;;;;;;4989467;28;20347;-54
2023/01/03 03:31:19;;;;;;;696.23;287.37;;;;;;;;;;4993827;28;24216;-54
2023/01/03 03:34:02;;;;;;;625.43;253.13;;;;;;;;;;4994433;28;20698;-54
2023/01/03 03:36:48;;;;;;;510.37;214.13;;;;;;;;;;4999112;28;20294;-54
2023/01/03 03:45:19;;;;;;;588.30;247.70;;;;;;;;;;4983376;28;20212;-53
2023/01/03 03:47:48;;;;;;;611.57;241.67;;;;;;;;;;4977979;28;20205;-54
2023/01/03 03:50:34;;;;;;;596.17;242.90;;;;;;;;;;4978716;28;20269;-54
2023/01/03 03:53:02;;;;;;;505.17;202.70;;;;;;;;;;4995982;28;21860;-54
2023/01/03 03:55:34;;;;;;;597.97;244.97;;;;;;;;;;4987161;28;20184;-54
2023/01/03 03:58:05;;;;;;;622.07;254.57;;;;;;;;;;4995587;28;20583;-54
2023/01/03 04:00:34;;;;;;;662.53;277.97;;;;;;;;;;4982476;28;21543;-55
2023/01/03 04:03:01;;;;;;;598.80;246.83;;;;;;;;;;4993937;28;20268;-55
2023/01/03 04:05:31;;;;;;;572.00;238.67;;;;;;;;;;4995684;28;20400;-55
2023/01/03 04:07:57;;;;;;;625.10;251.63;;;;;;;;;;4987324;28;20362;-53
2023/01/03 04:10:24;;;;;;;620.93;252.73;;;;;;;;;;4992871;28;20180;-54
2023/01/03 04:12:51;;;;;;;504.87;200.97;;;;;;;;;;4994335;28;20816;-53
2023/01/03 04:15:18;;;;;;;668.57;278.97;;;;;;;;;;4994819;28;20221;-54
2023/01/03 04:17:44;;;;;;;574.77;241.03;;;;;;;;;;4996943;28;20217;-59
2023/01/03 04:20:11;;;;;;;551.47;220.27;;;;;;;;;;4995169;28;20261;-53
2023/01/03 04:22:37;;;;;;;621.67;254.40;;;;;;;;;;4985374;28;20295;-54
2023/01/03 04:25:04;;;;;;;598.70;239.70;;;;;;;;;;4989963;28;20330;-55
2023/01/03 04:27:31;;;;;;;547.73;214.30;;;;;;;;;;4987572;28;20249;-54
2023/01/03 04:29:57;;;;;;;602.87;245.07;;;;;;;;;;4987259;28;20289;-54
2023/01/03 04:32:23;;;;;;;566.27;226.83;;;;;;;;;;4990191;28;21374;-53
2023/01/03 04:34:49;;;;;;;609.57;249.63;;;;;;;;;;4988654;28;20204;-54
2023/01/03 04:37:15;;;;;;;539.80;204.63;;;;;;;;;;4999061;28;20184;-54
2023/01/03 04:39:41;;;;;;;658.27;262.50;;;;;;;;;;4990785;28;20549;-54
2023/01/03 04:44:53;;;;;;;560.77;220.70;;;;;;;;;;4984598;28;20219;-54
2023/01/03 04:47:19;;;;;;;521.47;210.07;;;;;;;;;;4993754;28;20231;-54
2023/01/03 04:49:46;;;;;;;509.10;201.67;;;;;;;;;;4999319;28;20877;-54
2023/01/03 04:52:13;;;;;;;561.07;227.17;;;;;;;;;;5006338;28;20450;-54
2023/01/03 04:54:40;;;;;;;525.13;205.93;;;;;;;;;;5002304;28;20222;-54
2023/01/03 04:57:07;;;;;;;617.37;249.80;;;;;;;;;;5000664;28;20300;-54
2023/01/03 04:59:33;;;;;;;556.63;229.67;;;;;;;;;;4986134;28;20806;-53
2023/01/03 05:02:00;;;;;;;635.27;260.33;;;;;;;;;;4993091;28;20537;-53
2023/01/03 05:04:27;;;;;;;670.07;275.27;;;;;;;;;;4987337;28;20212;-53
2023/01/03 05:06:54;;;;;;;618.60;249.00;;;;;;;;;;4989567;28;20664;-54
2023/01/03 05:09:21;;;;;;;525.73;216.23;;;;;;;;;;4969120;28;20472;-54
2023/01/03 05:11:47;;;;;;;477.73;204.27;;;;;;;;;;4990147;28;20228;-54
2023/01/03 05:14:13;;;;;;;557.57;244.73;;;;;;;;;;5020365;23;20290;-46
2023/01/03 05:16:39;;;;;;;559.07;235.93;;;;;;;;;;4996817;28;20372;-47
2023/01/03 05:19:05;;;;;;;624.73;254.27;;;;;;;;;;4995943;28;20330;-47
2023/01/03 05:27:02;;;;;;;561.90;238.40;;;;;;;;;;4998386;28;20263;-47
2023/01/03 05:29:28;;;;;;;585.10;242.57;;;;;;;;;;4994843;28;20539;-47
2023/01/03 05:31:55;;;;;;;560.90;236.43;;;;;;;;;;4997814;28;20282;-47
2023/01/03 05:34:21;;;;;;;629.43;267.00;;;;;;;;;;4998223;28;20501;-47
2023/01/03 05:36:47;;;;;;;574.30;243.17;;;;;;;;;;4994889;28;20589;-47
2023/01/03 05:39:13;;;;;;;647.90;274.20;;;;;;;;;;4994094;28;20342;-47
2023/01/03 05:44:24;;;;;;;578.57;252.20;;;;;;;;;;4997861;28;20224;-46
2023/01/03 05:46:50;;;;;;;516.10;220.97;;;;;;;;;;4997662;28;20201;-47
2023/01/03 05:49:16;;;;;;;657.67;274.83;;;;;;;;;;4997990;28;20272;-47
2023/01/03 05:51:42;;;;;;;557.63;237.73;;;;;;;;;;4998023;28;20247;-47
2023/01/03 05:54:12;;;;;;;589.43;262.70;;;;;;;;;;4997598;28;20617;-47
2023/01/03 05:56:38;;;;;;;562.90;237.93;;;;;;;;;;4997133;28;20209;-47
2023/01/03 05:59:06;;;;;;;559.13;239.47;;;;;;;;;;4995134;28;20239;-47
2023/01/03 06:01:32;;;;;;;538.57;232.17;;;;;;;;;;4997900;28;20193;-47
2023/01/03 06:03:58;;;;;;;535.30;239.43;;;;;;;;;;4996007;28;20721;-47
2023/01/03 06:06:24;;;;;;;592.73;252.00;;;;;;;;;;4993119;28;20970;-47
2023/01/03 06:08:50;;;;;;;525.50;219.03;;;;;;;;;;4996259;28;20236;-46
2023/01/03 06:11:18;;;;;;;627.07;267.03;;;;;;;;;;4994646;28;20672;-47
2023/01/03 06:13:45;;;;;;;534.63;233.73;;;;;;;;;;4995009;28;20263;-47
2023/01/03 06:18:57;;;;;;;616.03;263.30;;;;;;;;;;4995046;28;20359;-47
2023/01/03 06:21:23;;;;;;;612.10;257.33;;;;;;;;;;4994340;28;20621;-46
2023/01/03 06:23:49;;;;;;;554.67;240.20;;;;;;;;;;4997026;28;20782;-48
2023/01/03 06:26:19;;;;;;;597.73;254.77;;;;;;;;;;4989570;28;20351;-48
2023/01/03 06:28:46;;;;;;;670.23;269.17;;;;;;;;;;4994171;28;20336;-47
2023/01/03 06:31:13;;;;;;;637.50;260.47;;;;;;;;;;4997908;28;20217;-48
2023/01/03 06:33:39;;;;;;;649.07;271.00;;;;;;;;;;4996303;28;20521;-48
2023/01/03 06:36:07;;;;;;;547.17;225.30;;;;;;;;;;4995674;28;20208;-48
2023/01/03 06:38:33;;;;;;;537.60;211.67;;;;;;;;;;4994801;28;20260;-48
2023/01/03 06:40:59;;;;;;;511.90;216.87;;;;;;;;;;4998058;28;20259;-48
2023/01/03 06:43:25;;;;;;;534.20;224.00;;;;;;;;;;4995506;28;20197;-48
2023/01/03 06:54:14;;;;;;;393.07;174.10;;;;;;;;;;4981479;28;20571;-47
2023/01/03 06:56:40;;;;;;;449.40;183.97;;;;;;;;;;4982825;28;20542;-47
2023/01/03 06:59:05;;;;;;;501.60;203.50;;;;;;;;;;4980854;28;20336;-46
2023/01/03 07:01:31;;;;;;;493.13;194.60;;;;;;;;;;4981887;28;20200;-46
2023/01/03 07:03:57;;;;;;;475.33;200.00;;;;;;;;;;4979419;28;20269;-46
2023/01/03 07:06:24;;;;;;;511.17;200.53;;;;;;;;;;4982148;28;20241;-47
2023/01/03 07:08:50;;;;;;;560.20;228.90;;;;;;;;;;4980810;28;20221;-46
2023/01/03 07:11:16;;;;;;;636.50;250.43;;;;;;;;;;4990253;28;20247;-48
2023/01/03 07:13:57;;;;;;;601.97;243.70;;;;;;;;;;4997407;28;20293;-48
2023/01/03 07:16:24;;;;;;;599.57;255.23;;;;;;;;;;5001816;28;20215;-48
2023/01/03 07:18:50;;;;;;;568.93;227.43;;;;;;;;;;4996662;28;20545;-48
2023/01/03 07:21:17;;;;;;;551.83;230.67;;;;;;;;;;4999404;28;20533;-48
2023/01/03 07:23:43;;;;;;;553.60;226.10;;;;;;;;;;4994083;28;20267;-48
2023/01/03 07:26:09;;;;;;;595.33;236.40;;;;;;;;;;4999720;28;20220;-49
2023/01/03 07:28:35;;;;;;;609.67;251.30;;;;;;;;;;5001834;28;20181;-48
2023/01/03 07:31:02;;;;;;;578.03;241.43;;;;;;;;;;4998860;28;20347;-48
2023/01/03 07:33:28;;;;;;;522.87;213.23;;;;;;;;;;5001435;28;20750;-47
2023/01/03 07:36:01;;;;;;;560.20;226.63;;;;;;;;;;4999033;28;20216;-47
2023/01/03 07:38:27;;;;;;;522.83;224.63;;;;;;;;;;5001489;28;20362;-47
2023/01/03 07:40:56;;;;;;;533.83;222.87;;;;;;;;;;4994868;28;20287;-48
2023/01/03 07:43:37;;;;;;;579.67;235.17;;;;;;;;;;4995677;28;20649;-48
2023/01/03 07:46:07;;;;;;;564.33;229.23;;;;;;;;;;4994821;28;20220;-48
2023/01/03 07:48:33;;;;;;;560.27;220.97;;;;;;;;;;4996706;28;20265;-48
2023/01/03 07:50:59;;;;;;;595.13;248.00;;;;;;;;;;4986128;28;20300;-47
2023/01/03 07:53:26;;;;;;;509.50;214.00;;;;;;;;;;4999569;28;20224;-48
2023/01/03 07:55:52;;;;;;;574.73;230.57;;;;;;;;;;5001233;28;20909;-48
2023/01/03 07:58:18;;;;;;;546.43;221.53;;;;;;;;;;5000080;28;20529;-48
2023/01/03 08:00:44;;;;;;;556.03;221.80;;;;;;;;;;4988375;28;20345;-48
2023/01/03 08:03:10;;;;;;;545.27;228.67;;;;;;;;;;4988269;28;20744;-48
2023/01/03 08:05:36;;;;;;;561.67;231.17;;;;;;;;;;4979130;28;20257;-48
2023/01/03 08:08:03;;;;;;;614.67;260.77;;;;;;;;;;4992213;28;20223;-48
2023/01/03 08:13:17;;;;;;;611.80;267.87;;;;;;;;;;4988014;28;20211;-47
2023/01/03 08:15:50;;;;;;;599.30;247.40;;;;;;;;;;5002966;28;20422;-48
2023/01/03 08:18:19;;;;;;;592.17;257.73;;;;;;;;;;4969293;28;20668;-47
2023/01/03 08:20:46;;;;;;;591.40;265.73;;;;;;;;;;4991899;28;20209;-48
2023/01/03 08:23:13;;;;;;;638.20;265.37;;;;;;;;;;5000115;28;20963;-47
2023/01/03 08:25:39;;;;;;;538.17;235.93;;;;;;;;;;4999476;28;20658;-48
2023/01/03 08:28:06;;;;;;;650.37;274.00;;;;;;;;;;5002244;28;20216;-48
2023/01/03 08:30:35;;;;;;;608.77;255.53;;;;;;;;;;4995406;28;20574;-48
2023/01/03 08:33:03;;;;;;;570.73;250.57;;;;;;;;;;5004106;28;20671;-50
2023/01/03 08:35:30;;;;;;;631.70;268.30;;;;;;;;;;4995037;28;20747;-48
2023/01/03 08:37:58;;;;;;;640.40;265.10;;;;;;;;;;4983814;28;20296;-48
2023/01/03 08:40:24;;;;;;;618.77;267.10;;;;;;;;;;4999546;28;20254;-51
2023/01/03 08:42:50;;;;;;;590.07;254.60;;;;;;;;;;4996557;28;20662;-48
2023/01/03 08:45:17;;;;;;;604.37;266.57;;;;;;;;;;4988172;28;20205;-47
2023/01/03 08:47:43;;;;;;;597.67;255.10;;;;;;;;;;5000656;28;20278;-48
2023/01/03 08:50:10;;;;;;;628.40;268.00;;;;;;;;;;5004967;28;20286;-48
2023/01/03 08:52:36;;;;;;;637.80;274.77;;;;;;;;;;4997167;28;20197;-48
2023/01/03 08:55:03;;;;;;;625.13;261.13;;;;;;;;;;5001618;28;20173;-48
2023/01/03 08:57:29;;;;;;;581.27;250.90;;;;;;;;;;4998564;28;20311;-47
2023/01/03 08:59:55;;;;;;;603.63;247.47;;;;;;;;;;4995207;28;20212;-48
2023/01/03 09:02:21;;;;;;;699.40;287.87;;;;;;;;;;5001265;28;20597;-46
2023/01/03 09:04:47;;;;;;;744.30;315.23;;;;;;;;;;4979809;28;20267;-46
2023/01/03 09:07:13;;;;;;;643.67;268.20;;;;;;;;;;4983661;28;20270;-48
2023/01/03 09:09:39;;;;;;;601.10;257.13;;;;;;;;;;4995914;28;20349;-48
2023/01/03 09:12:06;;;;;;;717.60;314.93;;;;;;;;;;4967434;28;20274;-48
2023/01/03 09:14:32;;;;;;;739.47;321.80;;;;;;;;;;4973493;28;20235;-48
2023/01/03 09:16:58;;;;;;;711.13;309.37;;;;;;;;;;4965177;28;20216;-48
2023/01/03 09:19:24;;;;;;;735.17;325.53;;;;;;;;;;4964670;28;20178;-50
2023/01/03 09:21:50;;;;;;;680.67;293.20;;;;;;;;;;4954876;28;20236;-47
2023/01/03 09:24:16;;;;;;;707.53;309.93;;;;;;;;;;4964511;28;20791;-49
2023/01/03 09:26:42;;;;;;;708.17;311.77;;;;;;;;;;4970823;28;20232;-48
2023/01/03 09:29:08;;;;;;;703.50;306.27;;;;;;;;;;4972044;28;20224;-48
2023/01/03 09:31:35;;;;;;;634.00;283.60;;;;;;;;;;4971691;28;20557;-48
2023/01/03 09:34:04;;;;;;;786.07;352.10;;;;;;;;;;4961055;28;20652;-47
2023/01/03 09:36:30;;;;;;;704.37;304.03;;;;;;;;;;4943107;28;20370;-49
2023/01/03 09:38:56;;;;;;;735.30;317.13;;;;;;;;;;4972055;28;20217;-47
2023/01/03 09:41:23;;;;;;;724.23;308.80;;;;;;;;;;4958927;28;20231;-49
2023/01/03 09:43:51;;;;;;;769.67;345.97;;;;;;;;;;4962193;28;20193;-50
2023/01/03 09:46:24;;;;;;;728.23;317.17;;;;;;;;;;4966643;28;20238;-48
2023/01/03 09:48:51;;;;;;;604.07;263.07;;;;;;;;;;4970208;28;20759;-47
2023/01/03 10:05:49;;;;;;;891.23;403.23;;;;;;;;;;4947689;28;20959;-49
2023/01/03 10:08:24;;;;;;;868.40;384.80;;;;;;;;;;4957534;28;20225;-50
2023/01/03 10:10:50;;;;;;;770.70;327.03;;;;;;;;;;4943495;28;20208;-48
2023/01/03 10:13:23;;;;;;;711.13;296.70;;;;;;;;;;4951226;28;20253;-49
2023/01/03 10:16:12;;;;;;;685.10;295.40;;;;;;;;;;4970649;28;20318;-49
2023/01/03 10:18:50;;;;;;;736.23;321.47;;;;;;;;;;4965100;28;20321;-48
2023/01/03 10:21:20;;;;;;;711.40;306.70;;;;;;;;;;4961772;28;20229;-50
2023/01/03 10:23:48;;;;;;;682.87;288.70;;;;;;;;;;4986745;28;20223;-49
2023/01/03 10:26:14;;;;;;;703.43;316.70;;;;;;;;;;4978963;28;20228;-48
2023/01/03 10:28:42;;;;;;;674.43;293.13;;;;;;;;;;4980190;28;20192;-49
2023/01/03 10:31:26;;;;;;;683.00;295.30;;;;;;;;;;4977197;28;20662;-50
2023/01/03 10:33:52;;;;;;;688.77;291.63;;;;;;;;;;4984004;28;20285;-50
2023/01/03 10:36:20;;;;;;;693.77;304.67;;;;;;;;;;4978757;28;20217;-48
2023/01/03 10:38:46;;;;;;;724.53;327.37;;;;;;;;;;4971541;28;20300;-49
2023/01/03 10:41:15;;;;;;;698.20;298.30;;;;;;;;;;4961768;28;20621;-48
2023/01/03 10:43:42;;;;;;;780.17;347.80;;;;;;;;;;4967792;28;20193;-49
2023/01/03 10:46:16;;;;;;;770.13;332.27;;;;;;;;;;4976247;28;20561;-48
2023/01/03 10:48:43;;;;;;;775.60;339.57;;;;;;;;;;4978754;28;20278;-50
2023/01/03 10:51:28;;;;;;;723.13;303.87;;;;;;;;;;4982020;28;20321;-48
2023/01/03 10:53:56;;;;;;;734.07;312.43;;;;;;;;;;4971373;28;20259;-49
2023/01/03 10:56:23;;;;;;;690.23;295.73;;;;;;;;;;4979025;28;20206;-50
2023/01/03 10:59:09;;;;;;;752.77;324.63;;;;;;;;;;4965311;28;20602;-49
2023/01/03 11:01:35;;;;;;;731.10;319.33;;;;;;;;;;4980611;28;20582;-49
2023/01/03 11:04:09;;;;;;;682.57;295.10;;;;;;;;;;4976437;28;20654;-48
2023/01/03 11:06:35;;;;;;;789.30;338.90;;;;;;;;;;4964984;28;20295;-48
2023/01/03 11:09:03;;;;;;;783.67;343.90;;;;;;;;;;4958594;28;20395;-47
2023/01/03 11:11:33;;;;;;;782.67;347.63;;;;;;;;;;4973675;28;20342;-47
2023/01/03 11:14:15;;;;;;;766.60;335.90;;;;;;;;;;4969398;28;20543;-47
2023/01/03 11:16:41;;;;;;;711.67;310.23;;;;;;;;;;4960416;28;20450;-48
2023/01/03 11:19:17;;;;;;;693.70;268.27;;;;;;;;;;5001810;23;20224;-55
2023/01/03 11:21:43;;;;;;;707.83;281.97;;;;;;;;;;4962436;28;20220;-55
2023/01/03 11:24:14;;;;;;;714.40;281.67;;;;;;;;;;4946276;28;20217;-55
2023/01/03 11:26:41;;;;;;;659.80;262.67;;;;;;;;;;4961554;28;20241;-55
2023/01/03 11:29:26;;;;;;;717.63;300.30;;;;;;;;;;4952999;28;20395;-55
2023/01/03 11:31:59;;;;;;;587.20;231.30;;;;;;;;;;4963136;28;20490;-55
2023/01/03 11:34:37;;;;;;;713.83;288.00;;;;;;;;;;4961702;28;20201;-56
2023/01/03 11:37:41;;;;;;;788.67;317.30;;;;;;;;;;4953412;28;20303;-55
2023/01/03 11:40:08;;;;;;;737.23;304.53;;;;;;;;;;4873694;28;20211;-55
2023/01/03 11:42:54;;;;;;;676.50;275.03;;;;;;;;;;4902795;28;20254;-55
2023/01/03 11:45:24;;;;;;;692.10;279.63;;;;;;;;;;4934577;28;20575;-56
2023/01/03 11:48:05;;;;;;;784.23;329.17;;;;;;;;;;4935729;28;20261;-55
2023/01/03 11:50:53;;;;;;;769.37;322.90;;;;;;;;;;4942877;28;20471;-55
2023/01/03 11:53:34;;;;;;;619.97;256.57;;;;;;;;;;4954550;28;20295;-55
2023/01/03 11:56:19;;;;;;;652.83;261.07;;;;;;;;;;4943996;28;20563;-55
2023/01/03 11:58:48;;;;;;;680.27;285.30;;;;;;;;;;4931378;28;20192;-55
2023/01/03 12:01:33;;;;;;;699.67;295.07;;;;;;;;;;4954525;28;20189;-55
2023/01/03 12:04:18;;;;;;;650.13;266.37;;;;;;;;;;4952455;28;20233;-54
2023/01/03 12:07:02;;;;;;;692.83;289.10;;;;;;;;;;4929089;28;20218;-55
2023/01/03 12:09:47;;;;;;;674.00;274.80;;;;;;;;;;4959705;28;20217;-55
2023/01/03 12:12:22;;;;;;;694.43;284.33;;;;;;;;;;4955792;28;20275;-55
2023/01/03 12:14:58;;;;;;;726.97;299.13;;;;;;;;;;4927714;28;20698;-54
2023/01/03 12:17:40;;;;;;;655.53;267.57;;;;;;;;;;4954136;28;20343;-54
2023/01/03 12:20:25;;;;;;;749.93;297.10;;;;;;;;;;4950518;28;20221;-54
2023/01/03 12:23:14;;;;;;;736.40;291.97;;;;;;;;;;4949743;28;20213;-53
2023/01/03 12:25:42;;;;;;;688.23;268.00;;;;;;;;;;4938746;28;20677;-54
2023/01/03 12:28:11;;;;;;;697.93;267.90;;;;;;;;;;4964575;28;20174;-54
2023/01/03 12:30:37;;;;;;;803.37;326.47;;;;;;;;;;4959428;28;20299;-54
2023/01/03 12:33:19;;;;;;;775.27;302.80;;;;;;;;;;4946516;28;20224;-54
2023/01/03 12:35:56;;;;;;;760.67;305.77;;;;;;;;;;4947880;28;20321;-54
2023/01/03 12:38:25;;;;;;;738.43;305.90;;;;;;;;;;4951630;28;20387;-54
2023/01/03 12:40:54;;;;;;;894.13;366.67;;;;;;;;;;4934606;28;20311;-54
2023/01/03 12:43:29;;;;;;;878.47;351.73;;;;;;;;;;4935881;28;20236;-54
2023/01/03 12:45:59;;;;;;;766.17;307.87;;;;;;;;;;4940046;28;20948;-54
2023/01/03 12:48:31;;;;;;;737.20;304.97;;;;;;;;;;4953896;28;20769;-54
2023/01/03 12:50:57;;;;;;;839.57;348.03;;;;;;;;;;4941448;28;21067;-53
2023/01/03 12:53:24;;;;;;;785.37;322.87;;;;;;;;;;4936274;28;20274;-53
2023/01/03 12:56:14;;;;;;;709.83;289.87;;;;;;;;;;4952148;28;20324;-54
2023/01/03 12:58:49;;;;;;;724.27;273.43;;;;;;;;;;4948909;28;20222;-53
2023/01/03 13:01:34;;;;;;;708.97;286.13;;;;;;;;;;4946778;28;20220;-53
2023/01/03 13:04:09;;;;;;;655.80;252.40;;;;;;;;;;4954285;28;20236;-54
2023/01/03 13:06:38;;;;;;;645.87;261.20;;;;;;;;;;4963349;28;20308;-53
2023/01/03 13:09:11;;;;;;;689.83;270.37;;;;;;;;;;4967761;28;20225;-54
2023/01/03 13:11:41;;;;;;;750.70;293.70;;;;;;;;;;4958736;28;20322;-53
2023/01/03 13:14:20;;;;;;;755.47;295.50;;;;;;;;;;4968972;28;20218;-53
2023/01/03 13:16:47;;;;;;;694.13;277.53;;;;;;;;;;4960300;28;20239;-53
2023/01/03 13:19:20;;;;;;;736.57;296.33;;;;;;;;;;4956999;28;20284;-54
2023/01/03 13:21:52;;;;;;;665.20;265.40;;;;;;;;;;4966981;28;20256;-54
2023/01/03 13:24:36;;;;;;;687.77;259.27;;;;;;;;;;4953575;28;20287;-53
2023/01/03 13:27:18;;;;;;;585.67;234.73;;;;;;;;;;4973512;28;20223;-53
2023/01/03 13:29:53;;;;;;;601.10;243.47;;;;;;;;;;4963423;28;20291;-54
2023/01/03 13:32:22;;;;;;;722.00;284.07;;;;;;;;;;4968515;28;20386;-53
2023/01/03 13:35:11;;;;;;;627.80;255.80;;;;;;;;;;4945377;28;20186;-53
2023/01/03 13:37:50;;;;;;;656.03;251.10;;;;;;;;;;4952611;28;20273;-53
2023/01/03 13:40:19;;;;;;;659.73;264.70;;;;;;;;;;4973530;28;20259;-53
2023/01/03 13:42:45;;;;;;;582.67;233.10;;;;;;;;;;4973616;28;20266;-53
2023/01/03 13:45:14;;;;;;;600.67;231.10;;;;;;;;;;4964562;28;20210;-53
2023/01/03 13:47:44;;;;;;;634.80;250.73;;;;;;;;;;4965231;28;20995;-53
2023/01/03 13:50:19;;;;;;;704.03;277.73;;;;;;;;;;4962055;28;20221;-54
2023/01/03 13:53:05;;;;;;;598.80;248.20;;;;;;;;;;4972104;28;20296;-55
2023/01/03 13:55:47;;;;;;;676.17;264.10;;;;;;;;;;4976682;28;20280;-55
2023/01/03 13:58:28;;;;;;;690.40;263.77;;;;;;;;;;4973202;28;20217;-55
2023/01/03 14:00:56;;;;;;;728.30;293.80;;;;;;;;;;4966083;28;20240;-53
2023/01/03 14:03:27;;;;;;;831.30;347.33;;;;;;;;;;4964731;28;20488;-53
2023/01/03 14:06:04;;;;;;;645.90;265.63;;;;;;;;;;4941367;28;20317;-53
2023/01/03 14:08:35;;;;;;;679.57;260.87;;;;;;;;;;4933580;28;20544;-53
2023/01/03 14:11:13;;;;;;;668.27;264.07;;;;;;;;;;4945788;28;20375;-53
2023/01/03 14:13:39;;;;;;;780.53;317.80;;;;;;;;;;4930930;28;20328;-53
2023/01/03 14:16:23;;;;;;;704.97;274.37;;;;;;;;;;4941730;28;20924;-53
2023/01/03 14:19:08;;;;;;;918.13;330.93;;;;;;;;;;4926394;28;20355;-53
2023/01/03 14:21:55;;;;;;;780.70;324.80;;;;;;;;;;4917276;28;20304;-53
2023/01/03 14:24:29;;;;;;;780.90;323.90;;;;;;;;;;4924621;28;20505;-53
2023/01/03 14:27:02;;;;;;;614.73;249.47;;;;;;;;;;4941445;28;20271;-54
2023/01/03 14:29:28;;;;;;;722.63;296.90;;;;;;;;;;4946460;28;20221;-53
2023/01/03 14:31:55;;;;;;;753.07;299.07;;;;;;;;;;4938371;28;20261;-54
2023/01/03 14:34:27;;;;;;;706.57;278.50;;;;;;;;;;4950655;28;20894;-54
2023/01/03 14:36:59;;;;;;;764.37;307.47;;;;;;;;;;4941730;28;20330;-53
2023/01/03 14:39:31;;;;;;;709.23;275.43;;;;;;;;;;4958903;28;20210;-53
2023/01/03 14:41:58;;;;;;;821.23;327.67;;;;;;;;;;4938458;28;20272;-53
2023/01/03 14:44:24;;;;;;;659.00;256.93;;;;;;;;;;4954307;28;20271;-54
2023/01/03 14:46:53;;;;;;;725.10;289.83;;;;;;;;;;4945346;28;20209;-55
2023/01/03 14:49:32;;;;;;;691.57;270.67;;;;;;;;;;4954687;28;20186;-55
2023/01/03 14:52:25;;;;;;;734.83;277.10;;;;;;;;;;4953062;28;20563;-54
2023/01/03 14:54:52;;;;;;;760.87;297.73;;;;;;;;;;4950105;28;20351;-55
2023/01/03 14:57:19;;;;;;;739.73;295.20;;;;;;;;;;4945638;28;20333;-54
2023/01/03 14:59:46;;;;;;;676.93;259.47;;;;;;;;;;4958328;28;20221;-54
2023/01/03 15:02:12;;;;;;;711.50;276.33;;;;;;;;;;4944789;28;20217;-54
2023/01/03 15:04:43;;;;;;;703.27;283.43;;;;;;;;;;4951766;28;20225;-55
2023/01/03 15:07:24;;;;;;;727.70;292.53;;;;;;;;;;4953518;28;20260;-55
2023/01/03 15:10:00;;;;;;;703.67;270.00;;;;;;;;;;4956153;28;21215;-54